Pagrindinis puslapis
METAR-TAF:

METAR-TAF

Oro uostai :

Waco, Teksasas, Jungtinės Amerikos Valstijos

platuma: 31-37-02N, ilguma: 097-13-40W, Aukštis: 157 m

Dabartinis oras

Ataskaita buvo paskelbta 19 minutes, ne 23:51 UTC
Vėjas 5 kt iš Rytų/Šiaurės Rytų
Temperatūra 17°C
Drėgmė 36%
Slėgis 1024 hPa
Matomumas: 16.1 km
Giedras dangus

METAR: KACT 062351Z 07005KT 10SM CLR 17/02 A3025 RMK AO2 SLP241 T01720022 10189 20156 55008

Laikas: 18:10 (00:10 UTC)

Prognozė

Ataskaita buvo paskelbta 50 minutes, ne 23:20 UTC
Prognozė galioja nuo 07 metu 00 UTC su 07 metu 24 UTC
Vėjas 8 kt iš Rytų
Matomumas: 10 km
Giedras dangus
Nuo 07 metu 1600 UTC
Vėjas 11 kt iš Pietų/Pietryčių
Matomumas: 10 km
Giedras dangus

TAF: KACT 062320Z 0700/0724 09008KT P6SM SKC FM071600 16011KT P6SM SKC

Orai ataskaitas ir orų prognozės (METAR, TAF).

turimą stotys yra geltonos ir raudonos taškus žemėlapyje.

Perkelti pele per norėdami pamatyti stoties vardą.

Tada spustelėkite, norėdami matyti oro stebėjimo ir prognozės.

Norėdami pakeisti žemėlapį: spustelėkite ant žalios mygtukų su juodo kryžiaus žemyn,; žalią mygtuką su brūkšneliu, jei norite nutolinti; arba žalių rodyklių gretimoms žemėlapius.


METAR-TAF: